sensor_id;sensor_type;location;lat;lon;timestamp;P1;durP1;ratioP1;P2;durP2;ratioP2
25125;SDS011;13106;50.808;5.670;2023-03-14T00:01:19;5.18;;;1.60;;
25125;SDS011;13106;50.808;5.670;2023-03-14T00:03:46;3.67;;;1.15;;
25125;SDS011;13106;50.808;5.670;2023-03-14T00:06:12;5.25;;;1.40;;
25125;SDS011;13106;50.808;5.670;2023-03-14T00:08:39;7.43;;;2.45;;
25125;SDS011;13106;50.808;5.670;2023-03-14T00:11:09;7.07;;;1.30;;
25125;SDS011;13106;50.808;5.670;2023-03-14T00:13:35;4.13;;;1.30;;
25125;SDS011;13106;50.808;5.670;2023-03-14T00:16:02;6.43;;;2.47;;
25125;SDS011;13106;50.808;5.670;2023-03-14T00:18:28;7.25;;;2.75;;
25125;SDS011;13106;50.808;5.670;2023-03-14T00:20:57;12.88;;;7.30;;
25125;SDS011;13106;50.808;5.670;2023-03-14T00:23:23;10.07;;;2.08;;
25125;SDS011;13106;50.808;5.670;2023-03-14T00:25:49;8.48;;;2.55;;
25125;SDS011;13106;50.808;5.670;2023-03-14T00:28:15;10.50;;;2.00;;
25125;SDS011;13106;50.808;5.670;2023-03-14T00:30:41;8.73;;;1.60;;
25125;SDS011;13106;50.808;5.670;2023-03-14T00:33:07;7.65;;;1.45;;
25125;SDS011;13106;50.808;5.670;2023-03-14T00:35:33;7.95;;;1.52;;
25125;SDS011;13106;50.808;5.670;2023-03-14T00:37:59;5.32;;;1.30;;
25125;SDS011;13106;50.808;5.670;2023-03-14T00:40:25;6.40;;;1.95;;
25125;SDS011;13106;50.808;5.670;2023-03-14T00:42:51;7.85;;;1.70;;
25125;SDS011;13106;50.808;5.670;2023-03-14T00:45:17;7.97;;;1.50;;
25125;SDS011;13106;50.808;5.670;2023-03-14T00:47:43;5.35;;;1.45;;
25125;SDS011;13106;50.808;5.670;2023-03-14T00:50:10;9.85;;;1.60;;
25125;SDS011;13106;50.808;5.670;2023-03-14T00:52:36;8.13;;;1.88;;
25125;SDS011;13106;50.808;5.670;2023-03-14T00:55:03;3.83;;;1.55;;
25125;SDS011;13106;50.808;5.670;2023-03-14T00:57:29;10.10;;;1.35;;
25125;SDS011;13106;50.808;5.670;2023-03-14T00:59:55;7.63;;;1.45;;
25125;SDS011;13106;50.808;5.670;2023-03-14T01:02:50;6.32;;;1.38;;
25125;SDS011;13106;50.808;5.670;2023-03-14T01:05:16;5.45;;;1.00;;
25125;SDS011;13106;50.808;5.670;2023-03-14T01:07:42;5.22;;;1.52;;
25125;SDS011;13106;50.808;5.670;2023-03-14T01:10:09;4.63;;;0.90;;
25125;SDS011;13106;50.808;5.670;2023-03-14T01:12:35;5.15;;;1.23;;
25125;SDS011;13106;50.808;5.670;2023-03-14T01:15:01;6.05;;;1.27;;
25125;SDS011;13106;50.808;5.670;2023-03-14T01:17:27;5.68;;;1.67;;
25125;SDS011;13106;50.808;5.670;2023-03-14T01:19:53;6.78;;;1.40;;
25125;SDS011;13106;50.808;5.670;2023-03-14T01:22:19;10.43;;;1.50;;
25125;SDS011;13106;50.808;5.670;2023-03-14T01:24:46;7.43;;;1.65;;
25125;SDS011;13106;50.808;5.670;2023-03-14T01:27:12;9.65;;;1.60;;
25125;SDS011;13106;50.808;5.670;2023-03-14T01:29:38;11.57;;;1.75;;
25125;SDS011;13106;50.808;5.670;2023-03-14T01:32:04;8.98;;;1.60;;
25125;SDS011;13106;50.808;5.670;2023-03-14T01:34:31;9.88;;;1.80;;
25125;SDS011;13106;50.808;5.670;2023-03-14T01:36:57;8.57;;;1.73;;
25125;SDS011;13106;50.808;5.670;2023-03-14T01:39:23;6.45;;;1.50;;
25125;SDS011;13106;50.808;5.670;2023-03-14T01:41:49;11.43;;;2.20;;
25125;SDS011;13106;50.808;5.670;2023-03-14T01:44:15;11.30;;;2.33;;
25125;SDS011;13106;50.808;5.670;2023-03-14T01:46:42;6.45;;;2.35;;
25125;SDS011;13106;50.808;5.670;2023-03-14T01:51:42;13.02;;;2.20;;
25125;SDS011;13106;50.808;5.670;2023-03-14T01:56:35;9.98;;;2.00;;
25125;SDS011;13106;50.808;5.670;2023-03-14T01:59:02;9.00;;;1.83;;
25125;SDS011;13106;50.808;5.670;2023-03-14T02:01:30;10.15;;;1.77;;
25125;SDS011;13106;50.808;5.670;2023-03-14T02:03:56;7.70;;;2.30;;
25125;SDS011;13106;50.808;5.670;2023-03-14T02:06:24;11.30;;;1.90;;
25125;SDS011;13106;50.808;5.670;2023-03-14T02:08:52;14.10;;;2.55;;
25125;SDS011;13106;50.808;5.670;2023-03-14T02:11:18;13.68;;;2.70;;
25125;SDS011;13106;50.808;5.670;2023-03-14T02:13:44;8.73;;;2.00;;
25125;SDS011;13106;50.808;5.670;2023-03-14T02:16:10;11.95;;;2.50;;
25125;SDS011;13106;50.808;5.670;2023-03-14T02:18:37;7.20;;;1.65;;
25125;SDS011;13106;50.808;5.670;2023-03-14T02:26:20;9.60;;;2.00;;
25125;SDS011;13106;50.808;5.670;2023-03-14T02:28:48;16.58;;;3.20;;
25125;SDS011;13106;50.808;5.670;2023-03-14T02:31:15;10.20;;;2.13;;
25125;SDS011;13106;50.808;5.670;2023-03-14T02:33:41;15.43;;;2.65;;
25125;SDS011;13106;50.808;5.670;2023-03-14T02:36:09;22.52;;;2.75;;
25125;SDS011;13106;50.808;5.670;2023-03-14T02:41:03;11.88;;;2.45;;
25125;SDS011;13106;50.808;5.670;2023-03-14T02:43:29;14.98;;;2.55;;
25125;SDS011;13106;50.808;5.670;2023-03-14T02:45:55;18.55;;;4.63;;
25125;SDS011;13106;50.808;5.670;2023-03-14T02:48:25;12.40;;;2.58;;
25125;SDS011;13106;50.808;5.670;2023-03-14T02:53:19;14.00;;;2.63;;
25125;SDS011;13106;50.808;5.670;2023-03-14T02:55:47;11.50;;;2.40;;
25125;SDS011;13106;50.808;5.670;2023-03-14T02:58:13;14.50;;;2.72;;
25125;SDS011;13106;50.808;5.670;2023-03-14T03:00:39;11.82;;;2.35;;
25125;SDS011;13106;50.808;5.670;2023-03-14T03:03:06;12.23;;;2.95;;
25125;SDS011;13106;50.808;5.670;2023-03-14T03:05:32;13.98;;;3.42;;
25125;SDS011;13106;50.808;5.670;2023-03-14T03:07:58;16.23;;;3.35;;
25125;SDS011;13106;50.808;5.670;2023-03-14T03:10:25;12.30;;;3.30;;
25125;SDS011;13106;50.808;5.670;2023-03-14T03:12:51;12.40;;;2.95;;
25125;SDS011;13106;50.808;5.670;2023-03-14T03:15:17;12.82;;;2.55;;
25125;SDS011;13106;50.808;5.670;2023-03-14T03:17:43;12.95;;;2.38;;
25125;SDS011;13106;50.808;5.670;2023-03-14T03:20:09;10.75;;;2.47;;
25125;SDS011;13106;50.808;5.670;2023-03-14T03:22:36;14.90;;;2.80;;
25125;SDS011;13106;50.808;5.670;2023-03-14T03:25:03;13.77;;;2.33;;
25125;SDS011;13106;50.808;5.670;2023-03-14T03:27:30;9.95;;;2.17;;
25125;SDS011;13106;50.808;5.670;2023-03-14T03:29:56;14.55;;;2.40;;
25125;SDS011;13106;50.808;5.670;2023-03-14T03:32:23;11.80;;;2.78;;
25125;SDS011;13106;50.808;5.670;2023-03-14T03:34:49;6.95;;;2.05;;
25125;SDS011;13106;50.808;5.670;2023-03-14T03:37:15;13.23;;;2.45;;
25125;SDS011;13106;50.808;5.670;2023-03-14T03:39:41;8.85;;;2.15;;
25125;SDS011;13106;50.808;5.670;2023-03-14T03:42:07;8.07;;;1.77;;
25125;SDS011;13106;50.808;5.670;2023-03-14T03:44:33;6.90;;;1.70;;
25125;SDS011;13106;50.808;5.670;2023-03-14T03:46:59;6.80;;;1.48;;
25125;SDS011;13106;50.808;5.670;2023-03-14T03:49:28;7.85;;;1.55;;
25125;SDS011;13106;50.808;5.670;2023-03-14T03:51:54;6.80;;;1.85;;
25125;SDS011;13106;50.808;5.670;2023-03-14T03:54:20;5.32;;;1.33;;
25125;SDS011;13106;50.808;5.670;2023-03-14T03:56:46;3.00;;;1.15;;
25125;SDS011;13106;50.808;5.670;2023-03-14T03:59:12;2.28;;;1.02;;
25125;SDS011;13106;50.808;5.670;2023-03-14T04:01:39;3.70;;;1.08;;
25125;SDS011;13106;50.808;5.670;2023-03-14T04:04:05;3.30;;;0.80;;
25125;SDS011;13106;50.808;5.670;2023-03-14T04:06:31;3.15;;;0.93;;
25125;SDS011;13106;50.808;5.670;2023-03-14T04:08:58;2.88;;;1.02;;
25125;SDS011;13106;50.808;5.670;2023-03-14T04:11:24;4.25;;;1.10;;
25125;SDS011;13106;50.808;5.670;2023-03-14T04:13:50;3.53;;;0.85;;
25125;SDS011;13106;50.808;5.670;2023-03-14T04:16:20;2.30;;;0.73;;
25125;SDS011;13106;50.808;5.670;2023-03-14T04:18:47;1.88;;;0.75;;
25125;SDS011;13106;50.808;5.670;2023-03-14T04:21:13;3.85;;;1.05;;
25125;SDS011;13106;50.808;5.670;2023-03-14T04:23:39;4.57;;;0.80;;
25125;SDS011;13106;50.808;5.670;2023-03-14T04:26:05;2.55;;;1.27;;
25125;SDS011;13106;50.808;5.670;2023-03-14T04:28:31;5.72;;;0.80;;
25125;SDS011;13106;50.808;5.670;2023-03-14T04:30:57;3.13;;;0.98;;
25125;SDS011;13106;50.808;5.670;2023-03-14T04:33:23;1.35;;;0.60;;
25125;SDS011;13106;50.808;5.670;2023-03-14T04:35:52;2.42;;;0.90;;
25125;SDS011;13106;50.808;5.670;2023-03-14T04:38:18;3.05;;;0.73;;
25125;SDS011;13106;50.808;5.670;2023-03-14T04:40:44;4.13;;;0.70;;
25125;SDS011;13106;50.808;5.670;2023-03-14T04:43:11;2.40;;;0.80;;
25125;SDS011;13106;50.808;5.670;2023-03-14T04:45:41;5.22;;;4.82;;
25125;SDS011;13106;50.808;5.670;2023-03-14T04:48:07;4.13;;;2.47;;
25125;SDS011;13106;50.808;5.670;2023-03-14T04:50:33;8.55;;;8.05;;
25125;SDS011;13106;50.808;5.670;2023-03-14T04:52:59;1.75;;;1.65;;
25125;SDS011;13106;50.808;5.670;2023-03-14T04:55:25;0.80;;;0.70;;
25125;SDS011;13106;50.808;5.670;2023-03-14T04:57:51;0.90;;;0.38;;
25125;SDS011;13106;50.808;5.670;2023-03-14T05:00:17;1.83;;;0.82;;
25125;SDS011;13106;50.808;5.670;2023-03-14T05:02:43;0.98;;;0.40;;
25125;SDS011;13106;50.808;5.670;2023-03-14T05:05:09;0.80;;;0.50;;
25125;SDS011;13106;50.808;5.670;2023-03-14T05:07:36;1.10;;;0.77;;
25125;SDS011;13106;50.808;5.670;2023-03-14T05:10:02;1.10;;;0.40;;
25125;SDS011;13106;50.808;5.670;2023-03-14T05:12:28;0.60;;;0.47;;
25125;SDS011;13106;50.808;5.670;2023-03-14T05:14:54;2.78;;;0.60;;
25125;SDS011;13106;50.808;5.670;2023-03-14T05:17:20;1.83;;;0.50;;
25125;SDS011;13106;50.808;5.670;2023-03-14T05:19:46;0.40;;;0.38;;
25125;SDS011;13106;50.808;5.670;2023-03-14T05:22:12;0.80;;;0.40;;
25125;SDS011;13106;50.808;5.670;2023-03-14T05:24:39;0.52;;;0.40;;
25125;SDS011;13106;50.808;5.670;2023-03-14T05:27:05;0.63;;;0.38;;
25125;SDS011;13106;50.808;5.670;2023-03-14T05:29:31;0.50;;;0.40;;
25125;SDS011;13106;50.808;5.670;2023-03-14T05:31:57;4.68;;;0.63;;
25125;SDS011;13106;50.808;5.670;2023-03-14T05:34:23;0.40;;;0.30;;
25125;SDS011;13106;50.808;5.670;2023-03-14T05:36:49;1.33;;;0.50;;
25125;SDS011;13106;50.808;5.670;2023-03-14T05:39:15;0.40;;;0.40;;
25125;SDS011;13106;50.808;5.670;2023-03-14T05:41:41;0.93;;;0.30;;
25125;SDS011;13106;50.808;5.670;2023-03-14T05:44:07;0.40;;;0.40;;
25125;SDS011;13106;50.808;5.670;2023-03-14T05:46:33;0.65;;;0.40;;
25125;SDS011;13106;50.808;5.670;2023-03-14T05:48:59;0.45;;;0.32;;
25125;SDS011;13106;50.808;5.670;2023-03-14T05:51:26;0.57;;;0.50;;
25125;SDS011;13106;50.808;5.670;2023-03-14T05:53:52;0.93;;;0.45;;
25125;SDS011;13106;50.808;5.670;2023-03-14T05:56:19;1.02;;;0.60;;
25125;SDS011;13106;50.808;5.670;2023-03-14T05:58:45;1.48;;;0.47;;
25125;SDS011;13106;50.808;5.670;2023-03-14T06:01:11;3.10;;;0.60;;
25125;SDS011;13106;50.808;5.670;2023-03-14T06:03:37;0.60;;;0.60;;
25125;SDS011;13106;50.808;5.670;2023-03-14T06:06:03;0.63;;;0.60;;
25125;SDS011;13106;50.808;5.670;2023-03-14T06:08:29;0.50;;;0.50;;
25125;SDS011;13106;50.808;5.670;2023-03-14T06:10:56;0.73;;;0.70;;
25125;SDS011;13106;50.808;5.670;2023-03-14T06:13:22;1.70;;;0.80;;
25125;SDS011;13106;50.808;5.670;2023-03-14T06:15:48;3.30;;;0.90;;
25125;SDS011;13106;50.808;5.670;2023-03-14T06:18:14;1.02;;;0.93;;
25125;SDS011;13106;50.808;5.670;2023-03-14T06:20:40;1.50;;;0.70;;
25125;SDS011;13106;50.808;5.670;2023-03-14T06:23:07;2.63;;;0.82;;
25125;SDS011;13106;50.808;5.670;2023-03-14T06:25:33;0.75;;;0.70;;
25125;SDS011;13106;50.808;5.670;2023-03-14T06:27:59;1.35;;;0.85;;
25125;SDS011;13106;50.808;5.670;2023-03-14T06:30:26;0.70;;;0.63;;
25125;SDS011;13106;50.808;5.670;2023-03-14T06:32:52;0.75;;;0.70;;
25125;SDS011;13106;50.808;5.670;2023-03-14T06:35:18;0.85;;;0.77;;
25125;SDS011;13106;50.808;5.670;2023-03-14T06:37:44;2.05;;;0.80;;
25125;SDS011;13106;50.808;5.670;2023-03-14T06:40:10;1.73;;;0.80;;
25125;SDS011;13106;50.808;5.670;2023-03-14T06:42:43;0.85;;;0.80;;
25125;SDS011;13106;50.808;5.670;2023-03-14T06:45:09;2.00;;;0.63;;
25125;SDS011;13106;50.808;5.670;2023-03-14T06:47:35;1.10;;;0.60;;
25125;SDS011;13106;50.808;5.670;2023-03-14T06:50:03;3.28;;;0.60;;
25125;SDS011;13106;50.808;5.670;2023-03-14T06:52:29;1.17;;;0.70;;
25125;SDS011;13106;50.808;5.670;2023-03-14T06:54:55;0.57;;;0.57;;
25125;SDS011;13106;50.808;5.670;2023-03-14T06:57:21;0.68;;;0.65;;
25125;SDS011;13106;50.808;5.670;2023-03-14T06:59:47;0.73;;;0.60;;
25125;SDS011;13106;50.808;5.670;2023-03-14T07:02:13;1.08;;;0.80;;
25125;SDS011;13106;50.808;5.670;2023-03-14T07:04:39;1.95;;;0.80;;
25125;SDS011;13106;50.808;5.670;2023-03-14T07:07:06;5.00;;;0.80;;
25125;SDS011;13106;50.808;5.670;2023-03-14T07:09:32;1.15;;;0.80;;
25125;SDS011;13106;50.808;5.670;2023-03-14T07:11:58;0.60;;;0.60;;
25125;SDS011;13106;50.808;5.670;2023-03-14T07:14:24;2.13;;;0.80;;
25125;SDS011;13106;50.808;5.670;2023-03-14T07:16:50;1.38;;;0.82;;
25125;SDS011;13106;50.808;5.670;2023-03-14T07:19:17;1.00;;;0.80;;
25125;SDS011;13106;50.808;5.670;2023-03-14T07:21:43;2.03;;;1.83;;
25125;SDS011;13106;50.808;5.670;2023-03-14T07:24:09;3.00;;;2.70;;
25125;SDS011;13106;50.808;5.670;2023-03-14T07:26:35;1.98;;;1.10;;
25125;SDS011;13106;50.808;5.670;2023-03-14T07:29:01;2.40;;;2.15;;
25125;SDS011;13106;50.808;5.670;2023-03-14T07:31:30;2.65;;;0.90;;
25125;SDS011;13106;50.808;5.670;2023-03-14T07:33:56;2.83;;;0.98;;
25125;SDS011;13106;50.808;5.670;2023-03-14T07:36:22;1.63;;;1.38;;
25125;SDS011;13106;50.808;5.670;2023-03-14T07:38:48;2.10;;;1.30;;
25125;SDS011;13106;50.808;5.670;2023-03-14T07:41:15;2.08;;;0.90;;
25125;SDS011;13106;50.808;5.670;2023-03-14T07:43:41;1.38;;;1.10;;
25125;SDS011;13106;50.808;5.670;2023-03-14T07:46:07;4.88;;;1.30;;
25125;SDS011;13106;50.808;5.670;2023-03-14T07:48:33;2.30;;;1.40;;
25125;SDS011;13106;50.808;5.670;2023-03-14T07:50:59;4.47;;;1.23;;
25125;SDS011;13106;50.808;5.670;2023-03-14T07:53:25;1.73;;;1.30;;
25125;SDS011;13106;50.808;5.670;2023-03-14T07:55:52;3.83;;;3.30;;
25125;SDS011;13106;50.808;5.670;2023-03-14T07:58:18;2.58;;;1.80;;
25125;SDS011;13106;50.808;5.670;2023-03-14T08:00:44;2.80;;;1.63;;
25125;SDS011;13106;50.808;5.670;2023-03-14T08:03:10;2.55;;;1.00;;
25125;SDS011;13106;50.808;5.670;2023-03-14T08:05:36;2.92;;;2.55;;
25125;SDS011;13106;50.808;5.670;2023-03-14T08:08:03;1.58;;;1.02;;
25125;SDS011;13106;50.808;5.670;2023-03-14T08:10:29;3.65;;;1.33;;
25125;SDS011;13106;50.808;5.670;2023-03-14T08:12:56;0.80;;;0.80;;
25125;SDS011;13106;50.808;5.670;2023-03-14T08:15:22;1.23;;;0.70;;
25125;SDS011;13106;50.808;5.670;2023-03-14T08:17:49;0.88;;;0.75;;
25125;SDS011;13106;50.808;5.670;2023-03-14T08:20:16;1.10;;;0.80;;
25125;SDS011;13106;50.808;5.670;2023-03-14T08:22:42;1.60;;;1.20;;
25125;SDS011;13106;50.808;5.670;2023-03-14T08:25:09;3.55;;;2.30;;
25125;SDS011;13106;50.808;5.670;2023-03-14T08:27:35;2.38;;;1.40;;
25125;SDS011;13106;50.808;5.670;2023-03-14T08:30:04;3.55;;;1.50;;
25125;SDS011;13106;50.808;5.670;2023-03-14T08:32:30;2.25;;;1.50;;
25125;SDS011;13106;50.808;5.670;2023-03-14T08:34:56;1.65;;;1.55;;
25125;SDS011;13106;50.808;5.670;2023-03-14T08:37:23;2.65;;;1.80;;
25125;SDS011;13106;50.808;5.670;2023-03-14T08:39:50;2.60;;;1.70;;
25125;SDS011;13106;50.808;5.670;2023-03-14T08:42:16;2.08;;;1.50;;
25125;SDS011;13106;50.808;5.670;2023-03-14T08:44:42;5.82;;;3.85;;
25125;SDS011;13106;50.808;5.670;2023-03-14T08:47:08;3.08;;;1.20;;
25125;SDS011;13106;50.808;5.670;2023-03-14T08:49:35;2.25;;;1.95;;
25125;SDS011;13106;50.808;5.670;2023-03-14T08:52:01;7.32;;;4.45;;
25125;SDS011;13106;50.808;5.670;2023-03-14T08:54:28;3.72;;;2.97;;
25125;SDS011;13106;50.808;5.670;2023-03-14T08:56:54;4.78;;;2.83;;
25125;SDS011;13106;50.808;5.670;2023-03-14T08:59:20;14.32;;;8.75;;
25125;SDS011;13106;50.808;5.670;2023-03-14T09:01:46;3.65;;;2.70;;
25125;SDS011;13106;50.808;5.670;2023-03-14T09:04:12;44.78;;;24.02;;
25125;SDS011;13106;50.808;5.670;2023-03-14T09:06:38;42.08;;;27.35;;
25125;SDS011;13106;50.808;5.670;2023-03-14T09:09:05;16.38;;;9.75;;
25125;SDS011;13106;50.808;5.670;2023-03-14T09:11:31;12.57;;;9.55;;
25125;SDS011;13106;50.808;5.670;2023-03-14T09:13:57;2.05;;;1.80;;
25125;SDS011;13106;50.808;5.670;2023-03-14T09:16:23;2.88;;;1.60;;
25125;SDS011;13106;50.808;5.670;2023-03-14T09:18:49;3.45;;;2.40;;
25125;SDS011;13106;50.808;5.670;2023-03-14T09:21:18;3.63;;;1.60;;
25125;SDS011;13106;50.808;5.670;2023-03-14T09:23:44;4.80;;;2.00;;
25125;SDS011;13106;50.808;5.670;2023-03-14T09:26:10;5.45;;;2.20;;
25125;SDS011;13106;50.808;5.670;2023-03-14T09:28:36;3.78;;;2.17;;
25125;SDS011;13106;50.808;5.670;2023-03-14T09:31:06;5.97;;;2.53;;
25125;SDS011;13106;50.808;5.670;2023-03-14T09:33:33;3.25;;;2.30;;
25125;SDS011;13106;50.808;5.670;2023-03-14T09:35:59;2.75;;;2.30;;
25125;SDS011;13106;50.808;5.670;2023-03-14T09:38:25;2.45;;;2.05;;
25125;SDS011;13106;50.808;5.670;2023-03-14T09:40:51;3.38;;;1.98;;
25125;SDS011;13106;50.808;5.670;2023-03-14T09:43:17;3.45;;;1.80;;
25125;SDS011;13106;50.808;5.670;2023-03-14T09:45:44;5.72;;;2.30;;
25125;SDS011;13106;50.808;5.670;2023-03-14T09:48:17;4.05;;;2.10;;
25125;SDS011;13106;50.808;5.670;2023-03-14T09:50:47;2.17;;;1.85;;
25125;SDS011;13106;50.808;5.670;2023-03-14T09:53:16;5.47;;;2.37;;
25125;SDS011;13106;50.808;5.670;2023-03-14T09:55:44;3.25;;;1.90;;
25125;SDS011;13106;50.808;5.670;2023-03-14T09:58:13;5.07;;;2.17;;
25125;SDS011;13106;50.808;5.670;2023-03-14T10:00:41;3.67;;;2.00;;
25125;SDS011;13106;50.808;5.670;2023-03-14T10:05:42;4.72;;;2.13;;
25125;SDS011;13106;50.808;5.670;2023-03-14T10:08:12;4.05;;;2.00;;
25125;SDS011;13106;50.808;5.670;2023-03-14T10:10:38;2.65;;;1.73;;
25125;SDS011;13106;50.808;5.670;2023-03-14T10:13:15;2.45;;;1.70;;
25125;SDS011;13106;50.808;5.670;2023-03-14T10:15:42;2.88;;;1.95;;
25125;SDS011;13106;50.808;5.670;2023-03-14T10:20:39;7.55;;;4.43;;
25125;SDS011;13106;50.808;5.670;2023-03-14T10:25:44;5.75;;;2.72;;
25125;SDS011;13106;50.808;5.670;2023-03-14T10:33:18;3.05;;;2.30;;
25125;SDS011;13106;50.808;5.670;2023-03-14T10:35:46;3.40;;;2.72;;
25125;SDS011;13106;50.808;5.670;2023-03-14T10:38:13;3.65;;;1.40;;
25125;SDS011;13106;50.808;5.670;2023-03-14T10:40:41;4.15;;;2.30;;
25125;SDS011;13106;50.808;5.670;2023-03-14T10:43:14;3.42;;;2.75;;
25125;SDS011;13106;50.808;5.670;2023-03-14T10:45:41;2.70;;;1.88;;
25125;SDS011;13106;50.808;5.670;2023-03-14T10:50:53;5.00;;;1.50;;
25125;SDS011;13106;50.808;5.670;2023-03-14T10:53:20;3.50;;;1.23;;
25125;SDS011;13106;50.808;5.670;2023-03-14T10:55:46;2.08;;;1.17;;
25125;SDS011;13106;50.808;5.670;2023-03-14T10:58:23;3.35;;;2.13;;
25125;SDS011;13106;50.808;5.670;2023-03-14T11:01:00;6.28;;;1.25;;
25125;SDS011;13106;50.808;5.670;2023-03-14T11:03:29;4.30;;;2.30;;
25125;SDS011;13106;50.808;5.670;2023-03-14T11:08:25;2.80;;;2.30;;
25125;SDS011;13106;50.808;5.670;2023-03-14T11:10:53;0.90;;;0.63;;
25125;SDS011;13106;50.808;5.670;2023-03-14T11:13:31;0.65;;;0.65;;
25125;SDS011;13106;50.808;5.670;2023-03-14T11:21:29;4.47;;;0.80;;
25125;SDS011;13106;50.808;5.670;2023-03-14T11:24:08;4.82;;;0.95;;
25125;SDS011;13106;50.808;5.670;2023-03-14T11:31:45;1.42;;;0.90;;
25125;SDS011;13106;50.808;5.670;2023-03-14T11:36:38;0.75;;;0.70;;
25125;SDS011;13106;50.808;5.670;2023-03-14T11:39:15;0.80;;;0.80;;
25125;SDS011;13106;50.808;5.670;2023-03-14T11:41:45;1.33;;;0.80;;
25125;SDS011;13106;50.808;5.670;2023-03-14T11:46:51;2.15;;;1.30;;
25125;SDS011;13106;50.808;5.670;2023-03-14T11:51:47;2.25;;;1.50;;
25125;SDS011;13106;50.808;5.670;2023-03-14T11:56:52;1.98;;;1.60;;
25125;SDS011;13106;50.808;5.670;2023-03-14T11:59:21;2.67;;;2.08;;
25125;SDS011;13106;50.808;5.670;2023-03-14T12:02:02;2.38;;;1.90;;
25125;SDS011;13106;50.808;5.670;2023-03-14T12:04:40;1.55;;;1.10;;
25125;SDS011;13106;50.808;5.670;2023-03-14T12:07:12;1.63;;;1.05;;
25125;SDS011;13106;50.808;5.670;2023-03-14T12:09:40;2.35;;;1.20;;
25125;SDS011;13106;50.808;5.670;2023-03-14T12:12:06;4.05;;;1.05;;
25125;SDS011;13106;50.808;5.670;2023-03-14T12:14:36;3.00;;;1.13;;
25125;SDS011;13106;50.808;5.670;2023-03-14T12:17:07;2.33;;;2.05;;
25125;SDS011;13106;50.808;5.670;2023-03-14T12:19:43;3.17;;;2.05;;
25125;SDS011;13106;50.808;5.670;2023-03-14T12:24:49;2.08;;;1.02;;
25125;SDS011;13106;50.808;5.670;2023-03-14T12:30:02;3.42;;;0.82;;
25125;SDS011;13106;50.808;5.670;2023-03-14T12:32:36;1.60;;;0.60;;
25125;SDS011;13106;50.808;5.670;2023-03-14T12:35:07;0.80;;;0.60;;
25125;SDS011;13106;50.808;5.670;2023-03-14T12:37:34;0.90;;;0.88;;
25125;SDS011;13106;50.808;5.670;2023-03-14T12:42:43;2.28;;;2.17;;
25125;SDS011;13106;50.808;5.670;2023-03-14T12:50:24;1.23;;;0.90;;
25125;SDS011;13106;50.808;5.670;2023-03-14T12:52:57;2.22;;;1.00;;
25125;SDS011;13106;50.808;5.670;2023-03-14T12:58:31;2.22;;;1.20;;
25125;SDS011;13106;50.808;5.670;2023-03-14T13:01:00;2.63;;;2.45;;
25125;SDS011;13106;50.808;5.670;2023-03-14T13:03:35;4.28;;;1.50;;
25125;SDS011;13106;50.808;5.670;2023-03-14T13:06:02;7.57;;;6.90;;
25125;SDS011;13106;50.808;5.670;2023-03-14T13:10:58;3.85;;;1.90;;
25125;SDS011;13106;50.808;5.670;2023-03-14T13:13:25;2.83;;;1.42;;
25125;SDS011;13106;50.808;5.670;2023-03-14T13:15:55;2.92;;;1.85;;
25125;SDS011;13106;50.808;5.670;2023-03-14T13:18:27;2.72;;;1.55;;
25125;SDS011;13106;50.808;5.670;2023-03-14T13:20:55;2.45;;;1.40;;
25125;SDS011;13106;50.808;5.670;2023-03-14T13:23:26;1.98;;;1.65;;
25125;SDS011;13106;50.808;5.670;2023-03-14T13:25:52;6.25;;;1.80;;
25125;SDS011;13106;50.808;5.670;2023-03-14T13:28:18;10.43;;;2.55;;
25125;SDS011;13106;50.808;5.670;2023-03-14T13:30:45;5.95;;;2.53;;
25125;SDS011;13106;50.808;5.670;2023-03-14T13:33:14;8.05;;;2.08;;
25125;SDS011;13106;50.808;5.670;2023-03-14T13:35:42;6.78;;;1.90;;
25125;SDS011;13106;50.808;5.670;2023-03-14T13:38:16;8.85;;;2.25;;
25125;SDS011;13106;50.808;5.670;2023-03-14T13:40:43;10.10;;;2.15;;
25125;SDS011;13106;50.808;5.670;2023-03-14T13:43:29;8.45;;;2.70;;
25125;SDS011;13106;50.808;5.670;2023-03-14T13:48:28;6.68;;;2.13;;
25125;SDS011;13106;50.808;5.670;2023-03-14T13:50:55;8.05;;;2.45;;
25125;SDS011;13106;50.808;5.670;2023-03-14T13:53:22;5.90;;;1.73;;
25125;SDS011;13106;50.808;5.670;2023-03-14T13:55:49;8.10;;;2.10;;
25125;SDS011;13106;50.808;5.670;2023-03-14T13:58:21;12.38;;;2.20;;
25125;SDS011;13106;50.808;5.670;2023-03-14T14:03:22;12.57;;;3.42;;
25125;SDS011;13106;50.808;5.670;2023-03-14T14:05:48;12.23;;;4.45;;
25125;SDS011;13106;50.808;5.670;2023-03-14T14:08:14;10.70;;;3.85;;
25125;SDS011;13106;50.808;5.670;2023-03-14T14:10:40;7.22;;;2.15;;
25125;SDS011;13106;50.808;5.670;2023-03-14T14:13:08;7.38;;;2.40;;
25125;SDS011;13106;50.808;5.670;2023-03-14T14:15:41;10.25;;;1.90;;
25125;SDS011;13106;50.808;5.670;2023-03-14T14:18:09;10.48;;;2.33;;
25125;SDS011;13106;50.808;5.670;2023-03-14T14:20:44;9.68;;;2.95;;
25125;SDS011;13106;50.808;5.670;2023-03-14T14:23:11;7.57;;;2.38;;
25125;SDS011;13106;50.808;5.670;2023-03-14T14:25:37;6.50;;;2.08;;
25125;SDS011;13106;50.808;5.670;2023-03-14T14:30:58;8.13;;;4.03;;
25125;SDS011;13106;50.808;5.670;2023-03-14T14:33:25;11.73;;;3.75;;
25125;SDS011;13106;50.808;5.670;2023-03-14T14:35:52;6.78;;;3.60;;
25125;SDS011;13106;50.808;5.670;2023-03-14T14:38:19;12.25;;;3.85;;
25125;SDS011;13106;50.808;5.670;2023-03-14T14:40:46;8.10;;;3.55;;
25125;SDS011;13106;50.808;5.670;2023-03-14T14:43:21;10.85;;;6.00;;
25125;SDS011;13106;50.808;5.670;2023-03-14T14:45:49;10.00;;;3.05;;
25125;SDS011;13106;50.808;5.670;2023-03-14T14:48:18;13.13;;;2.83;;
25125;SDS011;13106;50.808;5.670;2023-03-14T14:53:28;7.93;;;2.05;;
25125;SDS011;13106;50.808;5.670;2023-03-14T14:55:56;9.77;;;2.25;;
25125;SDS011;13106;50.808;5.670;2023-03-14T14:58:27;10.35;;;1.95;;
25125;SDS011;13106;50.808;5.670;2023-03-14T15:03:22;9.95;;;2.47;;
25125;SDS011;13106;50.808;5.670;2023-03-14T15:05:49;10.32;;;2.50;;
25125;SDS011;13106;50.808;5.670;2023-03-14T15:08:15;10.52;;;2.95;;
25125;SDS011;13106;50.808;5.670;2023-03-14T15:10:41;11.43;;;2.78;;
25125;SDS011;13106;50.808;5.670;2023-03-14T15:13:07;11.65;;;2.47;;
25125;SDS011;13106;50.808;5.670;2023-03-14T15:15:33;10.25;;;2.65;;
25125;SDS011;13106;50.808;5.670;2023-03-14T15:17:59;15.23;;;2.80;;
25125;SDS011;13106;50.808;5.670;2023-03-14T15:20:26;20.10;;;3.08;;
25125;SDS011;13106;50.808;5.670;2023-03-14T15:22:52;16.45;;;2.97;;
25125;SDS011;13106;50.808;5.670;2023-03-14T15:25:18;14.85;;;2.75;;
25125;SDS011;13106;50.808;5.670;2023-03-14T15:27:44;11.35;;;2.90;;
25125;SDS011;13106;50.808;5.670;2023-03-14T15:30:13;9.80;;;2.72;;
25125;SDS011;13106;50.808;5.670;2023-03-14T15:32:40;9.30;;;2.60;;
25125;SDS011;13106;50.808;5.670;2023-03-14T15:35:06;8.18;;;1.90;;
25125;SDS011;13106;50.808;5.670;2023-03-14T15:37:32;9.05;;;1.85;;
25125;SDS011;13106;50.808;5.670;2023-03-14T15:39:59;8.90;;;1.80;;
25125;SDS011;13106;50.808;5.670;2023-03-14T15:42:27;8.80;;;1.83;;
25125;SDS011;13106;50.808;5.670;2023-03-14T15:44:53;6.90;;;1.60;;
25125;SDS011;13106;50.808;5.670;2023-03-14T15:47:19;9.52;;;1.80;;
25125;SDS011;13106;50.808;5.670;2023-03-14T15:49:46;11.50;;;1.80;;
25125;SDS011;13106;50.808;5.670;2023-03-14T15:52:12;4.95;;;1.60;;
25125;SDS011;13106;50.808;5.670;2023-03-14T15:54:38;5.53;;;1.65;;
25125;SDS011;13106;50.808;5.670;2023-03-14T15:57:04;7.13;;;1.70;;
25125;SDS011;13106;50.808;5.670;2023-03-14T15:59:31;9.20;;;2.33;;
25125;SDS011;13106;50.808;5.670;2023-03-14T16:01:57;7.93;;;2.70;;
25125;SDS011;13106;50.808;5.670;2023-03-14T16:04:23;9.73;;;2.88;;
25125;SDS011;13106;50.808;5.670;2023-03-14T16:06:49;9.45;;;2.42;;
25125;SDS011;13106;50.808;5.670;2023-03-14T16:09:15;6.35;;;2.00;;
25125;SDS011;13106;50.808;5.670;2023-03-14T16:11:41;8.43;;;1.90;;